sensor_id;sensor_type;location;lat;lon;timestamp;P1;durP1;ratioP1;P2;durP2;ratioP2
56271;SDS011;42177;48.914;18.160;2022-12-29T00:01:47;10.1;;;5.3;;
56271;SDS011;42177;48.914;18.160;2022-12-29T00:06:47;10.1;;;5.3;;
56271;SDS011;42177;48.914;18.160;2022-12-29T00:11:47;10.6;;;5.7;;
56271;SDS011;42177;48.914;18.160;2022-12-29T00:16:47;10.6;;;5.7;;
56271;SDS011;42177;48.914;18.160;2022-12-29T00:21:47;8.5;;;5.3;;
56271;SDS011;42177;48.914;18.160;2022-12-29T00:26:47;8.5;;;5.3;;
56271;SDS011;42177;48.914;18.160;2022-12-29T00:31:47;9.8;;;5.1;;
56271;SDS011;42177;48.914;18.160;2022-12-29T00:36:47;9.8;;;5.1;;
56271;SDS011;42177;48.914;18.160;2022-12-29T00:41:47;7.2;;;4.7;;
56271;SDS011;42177;48.914;18.160;2022-12-29T00:46:47;7.2;;;4.7;;
56271;SDS011;42177;48.914;18.160;2022-12-29T00:51:47;9.1;;;5.1;;
56271;SDS011;42177;48.914;18.160;2022-12-29T00:56:47;9.1;;;5.1;;
56271;SDS011;42177;48.914;18.160;2022-12-29T01:01:47;7.5;;;5.1;;
56271;SDS011;42177;48.914;18.160;2022-12-29T01:06:47;7.5;;;5.1;;
56271;SDS011;42177;48.914;18.160;2022-12-29T01:11:47;9.6;;;5.5;;
56271;SDS011;42177;48.914;18.160;2022-12-29T01:16:47;9.6;;;5.5;;
56271;SDS011;42177;48.914;18.160;2022-12-29T01:21:47;8.7;;;5.5;;
56271;SDS011;42177;48.914;18.160;2022-12-29T01:26:47;8.7;;;5.5;;
56271;SDS011;42177;48.914;18.160;2022-12-29T01:31:47;8.4;;;5.2;;
56271;SDS011;42177;48.914;18.160;2022-12-29T01:36:47;8.4;;;5.2;;
56271;SDS011;42177;48.914;18.160;2022-12-29T01:41:47;9.1;;;5.8;;
56271;SDS011;42177;48.914;18.160;2022-12-29T01:46:47;9.1;;;5.8;;
56271;SDS011;42177;48.914;18.160;2022-12-29T01:51:47;9.1;;;5.5;;
56271;SDS011;42177;48.914;18.160;2022-12-29T01:56:48;9.1;;;5.5;;
56271;SDS011;42177;48.914;18.160;2022-12-29T02:01:47;7.1;;;4.9;;
56271;SDS011;42177;48.914;18.160;2022-12-29T02:06:47;7.1;;;4.9;;
56271;SDS011;42177;48.914;18.160;2022-12-29T02:11:47;9.8;;;5.5;;
56271;SDS011;42177;48.914;18.160;2022-12-29T02:16:51;9.8;;;5.5;;
56271;SDS011;42177;48.914;18.160;2022-12-29T02:21:49;8.7;;;5.5;;
56271;SDS011;42177;48.914;18.160;2022-12-29T02:26:49;8.7;;;5.5;;
56271;SDS011;42177;48.914;18.160;2022-12-29T02:31:48;8.4;;;5.5;;
56271;SDS011;42177;48.914;18.160;2022-12-29T02:36:49;8.4;;;5.5;;
56271;SDS011;42177;48.914;18.160;2022-12-29T02:41:49;9.8;;;6.7;;
56271;SDS011;42177;48.914;18.160;2022-12-29T02:46:47;9.8;;;6.7;;
56271;SDS011;42177;48.914;18.160;2022-12-29T02:51:49;8.5;;;5.7;;
56271;SDS011;42177;48.914;18.160;2022-12-29T02:56:47;8.5;;;5.7;;
56271;SDS011;42177;48.914;18.160;2022-12-29T03:01:54;8;;;5.2;;
56271;SDS011;42177;48.914;18.160;2022-12-29T03:06:49;8;;;5.2;;
56271;SDS011;42177;48.914;18.160;2022-12-29T03:11:50;8.6;;;5.5;;
56271;SDS011;42177;48.914;18.160;2022-12-29T03:16:47;8.6;;;5.5;;
56271;SDS011;42177;48.914;18.160;2022-12-29T03:21:47;8.8;;;5.5;;
56271;SDS011;42177;48.914;18.160;2022-12-29T03:26:47;8.8;;;5.5;;
56271;SDS011;42177;48.914;18.160;2022-12-29T03:31:47;9.2;;;5.2;;
56271;SDS011;42177;48.914;18.160;2022-12-29T03:36:47;9.2;;;5.2;;
56271;SDS011;42177;48.914;18.160;2022-12-29T03:41:47;8.2;;;5.6;;
56271;SDS011;42177;48.914;18.160;2022-12-29T03:46:47;8.2;;;5.6;;
56271;SDS011;42177;48.914;18.160;2022-12-29T03:51:47;8.5;;;5.4;;
56271;SDS011;42177;48.914;18.160;2022-12-29T03:56:47;8.5;;;5.4;;
56271;SDS011;42177;48.914;18.160;2022-12-29T04:01:47;10.4;;;5.8;;
56271;SDS011;42177;48.914;18.160;2022-12-29T04:06:47;10.4;;;5.8;;
56271;SDS011;42177;48.914;18.160;2022-12-29T04:11:47;8;;;5.5;;
56271;SDS011;42177;48.914;18.160;2022-12-29T04:16:47;8;;;5.5;;
56271;SDS011;42177;48.914;18.160;2022-12-29T04:21:47;9.5;;;6;;
56271;SDS011;42177;48.914;18.160;2022-12-29T04:26:47;9.5;;;6;;
56271;SDS011;42177;48.914;18.160;2022-12-29T04:31:47;9.5;;;5.6;;
56271;SDS011;42177;48.914;18.160;2022-12-29T04:36:47;9.5;;;5.6;;
56271;SDS011;42177;48.914;18.160;2022-12-29T04:41:47;9.5;;;6;;
56271;SDS011;42177;48.914;18.160;2022-12-29T04:46:47;9.5;;;6;;
56271;SDS011;42177;48.914;18.160;2022-12-29T04:51:47;9.2;;;5.9;;
56271;SDS011;42177;48.914;18.160;2022-12-29T04:56:47;9.2;;;5.9;;
56271;SDS011;42177;48.914;18.160;2022-12-29T05:01:47;10.9;;;6;;
56271;SDS011;42177;48.914;18.160;2022-12-29T05:06:47;10.9;;;6;;
56271;SDS011;42177;48.914;18.160;2022-12-29T05:11:47;11.2;;;6.6;;
56271;SDS011;42177;48.914;18.160;2022-12-29T05:16:47;11.2;;;6.6;;
56271;SDS011;42177;48.914;18.160;2022-12-29T05:21:47;8.8;;;6.1;;
56271;SDS011;42177;48.914;18.160;2022-12-29T05:26:47;8.8;;;6.1;;
56271;SDS011;42177;48.914;18.160;2022-12-29T05:31:47;9.1;;;5.7;;
56271;SDS011;42177;48.914;18.160;2022-12-29T05:36:47;9.1;;;5.7;;
56271;SDS011;42177;48.914;18.160;2022-12-29T05:41:47;8.6;;;5.9;;
56271;SDS011;42177;48.914;18.160;2022-12-29T05:46:47;8.6;;;5.9;;
56271;SDS011;42177;48.914;18.160;2022-12-29T05:51:47;9;;;6.2;;
56271;SDS011;42177;48.914;18.160;2022-12-29T05:56:47;9;;;6.2;;
56271;SDS011;42177;48.914;18.160;2022-12-29T06:01:47;10.9;;;6.2;;
56271;SDS011;42177;48.914;18.160;2022-12-29T06:06:47;10.9;;;6.2;;
56271;SDS011;42177;48.914;18.160;2022-12-29T06:11:47;12;;;6.6;;
56271;SDS011;42177;48.914;18.160;2022-12-29T06:16:47;12;;;6.6;;
56271;SDS011;42177;48.914;18.160;2022-12-29T06:21:47;10.4;;;6.4;;
56271;SDS011;42177;48.914;18.160;2022-12-29T06:26:47;10.4;;;6.4;;
56271;SDS011;42177;48.914;18.160;2022-12-29T06:31:47;11;;;6.3;;
56271;SDS011;42177;48.914;18.160;2022-12-29T06:36:47;11;;;6.3;;
56271;SDS011;42177;48.914;18.160;2022-12-29T06:41:47;10.1;;;6.5;;
56271;SDS011;42177;48.914;18.160;2022-12-29T06:46:47;10.1;;;6.5;;
56271;SDS011;42177;48.914;18.160;2022-12-29T06:51:47;9.8;;;6.4;;
56271;SDS011;42177;48.914;18.160;2022-12-29T06:56:47;9.8;;;6.4;;
56271;SDS011;42177;48.914;18.160;2022-12-29T07:01:47;9.7;;;6.2;;
56271;SDS011;42177;48.914;18.160;2022-12-29T07:06:47;9.7;;;6.2;;
56271;SDS011;42177;48.914;18.160;2022-12-29T07:11:47;10.5;;;6.7;;
56271;SDS011;42177;48.914;18.160;2022-12-29T07:16:47;10.5;;;6.7;;
56271;SDS011;42177;48.914;18.160;2022-12-29T07:21:47;11.5;;;6.8;;
56271;SDS011;42177;48.914;18.160;2022-12-29T07:26:47;11.5;;;6.8;;
56271;SDS011;42177;48.914;18.160;2022-12-29T07:31:47;11;;;6.3;;
56271;SDS011;42177;48.914;18.160;2022-12-29T07:36:47;11;;;6.3;;
56271;SDS011;42177;48.914;18.160;2022-12-29T07:41:47;10.1;;;6.5;;
56271;SDS011;42177;48.914;18.160;2022-12-29T07:46:47;10.1;;;6.5;;
56271;SDS011;42177;48.914;18.160;2022-12-29T07:51:47;9.3;;;6.1;;
56271;SDS011;42177;48.914;18.160;2022-12-29T07:56:48;9.3;;;6.1;;
56271;SDS011;42177;48.914;18.160;2022-12-29T08:01:47;13.1;;;6.9;;
56271;SDS011;42177;48.914;18.160;2022-12-29T08:06:47;13.1;;;6.9;;
56271;SDS011;42177;48.914;18.160;2022-12-29T08:11:47;12;;;7.3;;
56271;SDS011;42177;48.914;18.160;2022-12-29T08:16:47;12;;;7.3;;
56271;SDS011;42177;48.914;18.160;2022-12-29T08:21:47;10.9;;;6.6;;
56271;SDS011;42177;48.914;18.160;2022-12-29T08:26:47;10.9;;;6.6;;
56271;SDS011;42177;48.914;18.160;2022-12-29T08:31:47;10.2;;;6.9;;
56271;SDS011;42177;48.914;18.160;2022-12-29T08:36:47;10.2;;;6.9;;
56271;SDS011;42177;48.914;18.160;2022-12-29T08:41:47;11.5;;;6.9;;
56271;SDS011;42177;48.914;18.160;2022-12-29T08:46:47;11.5;;;6.9;;
56271;SDS011;42177;48.914;18.160;2022-12-29T08:51:47;11.1;;;7.6;;
56271;SDS011;42177;48.914;18.160;2022-12-29T08:56:47;11.1;;;7.6;;
56271;SDS011;42177;48.914;18.160;2022-12-29T09:01:47;12.2;;;7.5;;
56271;SDS011;42177;48.914;18.160;2022-12-29T09:06:47;12.2;;;7.5;;
56271;SDS011;42177;48.914;18.160;2022-12-29T09:11:47;10.3;;;6.8;;
56271;SDS011;42177;48.914;18.160;2022-12-29T09:16:47;10.3;;;6.8;;
56271;SDS011;42177;48.914;18.160;2022-12-29T09:21:47;10.9;;;7.7;;
56271;SDS011;42177;48.914;18.160;2022-12-29T09:26:47;10.9;;;7.7;;
56271;SDS011;42177;48.914;18.160;2022-12-29T09:31:47;17.1;;;7.8;;
56271;SDS011;42177;48.914;18.160;2022-12-29T09:36:47;17.1;;;7.8;;
56271;SDS011;42177;48.914;18.160;2022-12-29T09:41:48;12.5;;;8.5;;
56271;SDS011;42177;48.914;18.160;2022-12-29T09:46:47;12.5;;;8.5;;
56271;SDS011;42177;48.914;18.160;2022-12-29T09:51:48;14;;;8.8;;
56271;SDS011;42177;48.914;18.160;2022-12-29T09:56:47;14;;;8.8;;
56271;SDS011;42177;48.914;18.160;2022-12-29T10:01:49;12.1;;;8.5;;
56271;SDS011;42177;48.914;18.160;2022-12-29T10:06:49;12.1;;;8.5;;
56271;SDS011;42177;48.914;18.160;2022-12-29T10:11:51;13.1;;;8.8;;
56271;SDS011;42177;48.914;18.160;2022-12-29T10:16:49;13.1;;;8.8;;
56271;SDS011;42177;48.914;18.160;2022-12-29T10:21:51;12.7;;;9;;
56271;SDS011;42177;48.914;18.160;2022-12-29T10:26:47;12.7;;;9;;
56271;SDS011;42177;48.914;18.160;2022-12-29T10:31:47;13.5;;;8.5;;
56271;SDS011;42177;48.914;18.160;2022-12-29T10:36:47;13.5;;;8.5;;
56271;SDS011;42177;48.914;18.160;2022-12-29T10:41:48;14.1;;;9.1;;
56271;SDS011;42177;48.914;18.160;2022-12-29T10:46:50;14.1;;;9.1;;
56271;SDS011;42177;48.914;18.160;2022-12-29T10:51:47;13.7;;;8.4;;
56271;SDS011;42177;48.914;18.160;2022-12-29T10:56:47;13.7;;;8.4;;
56271;SDS011;42177;48.914;18.160;2022-12-29T11:01:49;16.2;;;8.9;;
56271;SDS011;42177;48.914;18.160;2022-12-29T11:06:47;16.2;;;8.9;;
56271;SDS011;42177;48.914;18.160;2022-12-29T11:11:47;15.3;;;9.2;;
56271;SDS011;42177;48.914;18.160;2022-12-29T11:16:56;15.3;;;9.2;;
56271;SDS011;42177;48.914;18.160;2022-12-29T11:21:47;15.4;;;9.2;;
56271;SDS011;42177;48.914;18.160;2022-12-29T11:26:48;15.4;;;9.2;;
56271;SDS011;42177;48.914;18.160;2022-12-29T11:31:47;15.4;;;9.2;;
56271;SDS011;42177;48.914;18.160;2022-12-29T11:36:47;15.4;;;9.2;;
56271;SDS011;42177;48.914;18.160;2022-12-29T11:41:50;15.7;;;9.3;;
56271;SDS011;42177;48.914;18.160;2022-12-29T11:46:48;15.7;;;9.3;;
56271;SDS011;42177;48.914;18.160;2022-12-29T11:51:47;13.9;;;8.8;;
56271;SDS011;42177;48.914;18.160;2022-12-29T11:56:47;13.9;;;8.8;;
56271;SDS011;42177;48.914;18.160;2022-12-29T12:01:47;13.7;;;9.5;;
56271;SDS011;42177;48.914;18.160;2022-12-29T12:06:48;13.7;;;9.5;;
56271;SDS011;42177;48.914;18.160;2022-12-29T12:11:47;14.3;;;10;;
56271;SDS011;42177;48.914;18.160;2022-12-29T12:16:48;14.3;;;10;;
56271;SDS011;42177;48.914;18.160;2022-12-29T12:21:47;15.7;;;9.8;;
56271;SDS011;42177;48.914;18.160;2022-12-29T12:26:50;15.7;;;9.8;;
56271;SDS011;42177;48.914;18.160;2022-12-29T12:31:47;14.2;;;10;;
56271;SDS011;42177;48.914;18.160;2022-12-29T12:36:51;14.2;;;10;;
56271;SDS011;42177;48.914;18.160;2022-12-29T12:41:48;14.9;;;10.2;;
56271;SDS011;42177;48.914;18.160;2022-12-29T12:46:54;14.9;;;10.2;;
56271;SDS011;42177;48.914;18.160;2022-12-29T12:51:48;14.8;;;10.9;;
56271;SDS011;42177;48.914;18.160;2022-12-29T12:56:51;14.8;;;10.9;;
56271;SDS011;42177;48.914;18.160;2022-12-29T13:01:48;14.4;;;10.6;;
56271;SDS011;42177;48.914;18.160;2022-12-29T13:06:47;14.4;;;10.6;;
56271;SDS011;42177;48.914;18.160;2022-12-29T13:11:50;13.6;;;10.4;;
56271;SDS011;42177;48.914;18.160;2022-12-29T13:16:48;13.6;;;10.4;;
56271;SDS011;42177;48.914;18.160;2022-12-29T13:21:51;16.3;;;11.4;;
56271;SDS011;42177;48.914;18.160;2022-12-29T13:26:47;16.3;;;11.4;;
56271;SDS011;42177;48.914;18.160;2022-12-29T13:31:49;15;;;11.5;;
56271;SDS011;42177;48.914;18.160;2022-12-29T13:36:48;15;;;11.5;;
56271;SDS011;42177;48.914;18.160;2022-12-29T13:41:48;16.3;;;11.6;;
56271;SDS011;42177;48.914;18.160;2022-12-29T13:46:47;16.3;;;11.6;;
56271;SDS011;42177;48.914;18.160;2022-12-29T13:51:48;18.2;;;12;;
56271;SDS011;42177;48.914;18.160;2022-12-29T13:56:48;18.2;;;12;;
56271;SDS011;42177;48.914;18.160;2022-12-29T14:01:49;16;;;11.5;;
56271;SDS011;42177;48.914;18.160;2022-12-29T14:06:47;16;;;11.5;;
56271;SDS011;42177;48.914;18.160;2022-12-29T14:11:47;16.7;;;11.9;;
56271;SDS011;42177;48.914;18.160;2022-12-29T14:16:47;16.7;;;11.9;;
56271;SDS011;42177;48.914;18.160;2022-12-29T14:21:50;17.9;;;12.5;;
56271;SDS011;42177;48.914;18.160;2022-12-29T14:26:47;17.9;;;12.5;;
56271;SDS011;42177;48.914;18.160;2022-12-29T14:31:47;15.8;;;12.1;;
56271;SDS011;42177;48.914;18.160;2022-12-29T14:36:52;15.8;;;12.1;;
56271;SDS011;42177;48.914;18.160;2022-12-29T14:41:47;21.2;;;13.1;;
56271;SDS011;42177;48.914;18.160;2022-12-29T14:46:49;21.2;;;13.1;;
56271;SDS011;42177;48.914;18.160;2022-12-29T14:51:47;15.8;;;12.6;;
56271;SDS011;42177;48.914;18.160;2022-12-29T14:56:47;15.8;;;12.6;;
56271;SDS011;42177;48.914;18.160;2022-12-29T15:01:47;21.9;;;13.9;;
56271;SDS011;42177;48.914;18.160;2022-12-29T15:06:47;21.9;;;13.9;;
56271;SDS011;42177;48.914;18.160;2022-12-29T15:11:48;20.7;;;13.6;;
56271;SDS011;42177;48.914;18.160;2022-12-29T15:16:47;20.7;;;13.6;;
56271;SDS011;42177;48.914;18.160;2022-12-29T15:21:47;18.6;;;13.7;;
56271;SDS011;42177;48.914;18.160;2022-12-29T15:26:49;18.6;;;13.7;;
56271;SDS011;42177;48.914;18.160;2022-12-29T15:31:47;18.8;;;13.1;;
56271;SDS011;42177;48.914;18.160;2022-12-29T15:36:49;18.8;;;13.1;;
56271;SDS011;42177;48.914;18.160;2022-12-29T15:41:48;19.9;;;14.7;;
56271;SDS011;42177;48.914;18.160;2022-12-29T15:46:47;19.9;;;14.7;;
56271;SDS011;42177;48.914;18.160;2022-12-29T15:51:47;23.8;;;17.4;;
56271;SDS011;42177;48.914;18.160;2022-12-29T15:56:47;23.8;;;17.4;;
56271;SDS011;42177;48.914;18.160;2022-12-29T16:01:47;19;;;13.9;;
56271;SDS011;42177;48.914;18.160;2022-12-29T16:06:54;19;;;13.9;;
56271;SDS011;42177;48.914;18.160;2022-12-29T16:11:47;21.2;;;14.2;;
56271;SDS011;42177;48.914;18.160;2022-12-29T16:16:47;21.2;;;14.2;;
56271;SDS011;42177;48.914;18.160;2022-12-29T16:21:47;21.6;;;15.1;;
56271;SDS011;42177;48.914;18.160;2022-12-29T16:26:47;21.6;;;15.1;;
56271;SDS011;42177;48.914;18.160;2022-12-29T16:31:50;20.2;;;15;;
56271;SDS011;42177;48.914;18.160;2022-12-29T16:36:52;20.2;;;15;;
56271;SDS011;42177;48.914;18.160;2022-12-29T16:41:47;21.2;;;14.8;;
56271;SDS011;42177;48.914;18.160;2022-12-29T16:47:04;21.2;;;14.8;;
56271;SDS011;42177;48.914;18.160;2022-12-29T16:51:47;18.9;;;14.3;;
56271;SDS011;42177;48.914;18.160;2022-12-29T16:56:47;18.9;;;14.3;;
56271;SDS011;42177;48.914;18.160;2022-12-29T17:01:47;19.9;;;14.5;;
56271;SDS011;42177;48.914;18.160;2022-12-29T17:06:47;19.9;;;14.5;;
56271;SDS011;42177;48.914;18.160;2022-12-29T17:11:47;18.8;;;14.9;;
56271;SDS011;42177;48.914;18.160;2022-12-29T17:16:47;18.8;;;14.9;;
56271;SDS011;42177;48.914;18.160;2022-12-29T17:21:47;17;;;13;;
56271;SDS011;42177;48.914;18.160;2022-12-29T17:26:48;17;;;13;;
56271;SDS011;42177;48.914;18.160;2022-12-29T17:31:47;20.7;;;15;;
56271;SDS011;42177;48.914;18.160;2022-12-29T17:36:47;20.7;;;15;;
56271;SDS011;42177;48.914;18.160;2022-12-29T17:41:47;20.3;;;14.1;;
56271;SDS011;42177;48.914;18.160;2022-12-29T17:46:47;20.3;;;14.1;;
56271;SDS011;42177;48.914;18.160;2022-12-29T17:51:47;19.6;;;14.7;;
56271;SDS011;42177;48.914;18.160;2022-12-29T17:56:47;19.6;;;14.7;;
56271;SDS011;42177;48.914;18.160;2022-12-29T18:01:47;19.3;;;14.4;;
56271;SDS011;42177;48.914;18.160;2022-12-29T18:06:47;19.3;;;14.4;;
56271;SDS011;42177;48.914;18.160;2022-12-29T18:11:47;19;;;13.9;;
56271;SDS011;42177;48.914;18.160;2022-12-29T18:16:47;19;;;13.9;;
56271;SDS011;42177;48.914;18.160;2022-12-29T18:21:47;21;;;14.5;;
56271;SDS011;42177;48.914;18.160;2022-12-29T18:26:47;21;;;14.5;;
56271;SDS011;42177;48.914;18.160;2022-12-29T18:31:47;18.4;;;13;;
56271;SDS011;42177;48.914;18.160;2022-12-29T18:36:47;18.4;;;13;;
56271;SDS011;42177;48.914;18.160;2022-12-29T18:41:47;18.2;;;13.9;;
56271;SDS011;42177;48.914;18.160;2022-12-29T18:46:47;18.2;;;13.9;;
56271;SDS011;42177;48.914;18.160;2022-12-29T18:51:47;20.8;;;14.3;;
56271;SDS011;42177;48.914;18.160;2022-12-29T18:56:47;20.8;;;14.3;;
56271;SDS011;42177;48.914;18.160;2022-12-29T19:01:47;20.5;;;13.7;;
56271;SDS011;42177;48.914;18.160;2022-12-29T19:06:47;20.5;;;13.7;;
56271;SDS011;42177;48.914;18.160;2022-12-29T19:11:47;19.9;;;13.1;;
56271;SDS011;42177;48.914;18.160;2022-12-29T19:16:47;19.9;;;13.1;;
56271;SDS011;42177;48.914;18.160;2022-12-29T19:21:47;19.1;;;13.9;;
56271;SDS011;42177;48.914;18.160;2022-12-29T19:26:47;19.1;;;13.9;;
56271;SDS011;42177;48.914;18.160;2022-12-29T19:31:47;18;;;13;;
56271;SDS011;42177;48.914;18.160;2022-12-29T19:36:47;18;;;13;;
56271;SDS011;42177;48.914;18.160;2022-12-29T19:41:47;20.6;;;13.5;;
56271;SDS011;42177;48.914;18.160;2022-12-29T19:46:47;20.6;;;13.5;;
56271;SDS011;42177;48.914;18.160;2022-12-29T19:51:47;19.5;;;12.8;;
56271;SDS011;42177;48.914;18.160;2022-12-29T19:56:47;19.5;;;12.8;;
56271;SDS011;42177;48.914;18.160;2022-12-29T20:01:47;18.1;;;12;;
56271;SDS011;42177;48.914;18.160;2022-12-29T20:06:47;18.1;;;12;;
56271;SDS011;42177;48.914;18.160;2022-12-29T20:11:47;18.2;;;12.1;;
56271;SDS011;42177;48.914;18.160;2022-12-29T20:16:47;18.2;;;12.1;;
56271;SDS011;42177;48.914;18.160;2022-12-29T20:21:47;17.5;;;11.9;;
56271;SDS011;42177;48.914;18.160;2022-12-29T20:26:47;17.5;;;11.9;;
56271;SDS011;42177;48.914;18.160;2022-12-29T20:31:47;15.8;;;10.6;;
56271;SDS011;42177;48.914;18.160;2022-12-29T20:36:47;15.8;;;10.6;;
56271;SDS011;42177;48.914;18.160;2022-12-29T20:41:47;16.2;;;11.6;;
56271;SDS011;42177;48.914;18.160;2022-12-29T20:46:47;16.2;;;11.6;;
56271;SDS011;42177;48.914;18.160;2022-12-29T20:51:47;15.4;;;11.4;;
56271;SDS011;42177;48.914;18.160;2022-12-29T20:56:47;15.4;;;11.4;;
56271;SDS011;42177;48.914;18.160;2022-12-29T21:01:47;14.2;;;10.7;;
56271;SDS011;42177;48.914;18.160;2022-12-29T21:06:47;14.2;;;10.7;;
56271;SDS011;42177;48.914;18.160;2022-12-29T21:11:47;14;;;10.2;;
56271;SDS011;42177;48.914;18.160;2022-12-29T21:16:47;14;;;10.2;;
56271;SDS011;42177;48.914;18.160;2022-12-29T21:21:47;14.4;;;9.7;;
56271;SDS011;42177;48.914;18.160;2022-12-29T21:26:47;14.4;;;9.7;;
56271;SDS011;42177;48.914;18.160;2022-12-29T21:31:47;14.5;;;9.9;;
56271;SDS011;42177;48.914;18.160;2022-12-29T21:36:47;14.5;;;9.9;;
56271;SDS011;42177;48.914;18.160;2022-12-29T21:41:47;13.9;;;10.2;;
56271;SDS011;42177;48.914;18.160;2022-12-29T21:46:47;13.9;;;10.2;;
56271;SDS011;42177;48.914;18.160;2022-12-29T21:51:47;14.9;;;10.3;;
56271;SDS011;42177;48.914;18.160;2022-12-29T21:56:47;14.9;;;10.3;;
56271;SDS011;42177;48.914;18.160;2022-12-29T22:01:47;25.5;;;18.2;;
56271;SDS011;42177;48.914;18.160;2022-12-29T22:06:47;25.5;;;18.2;;
56271;SDS011;42177;48.914;18.160;2022-12-29T22:11:47;26.8;;;18.9;;
56271;SDS011;42177;48.914;18.160;2022-12-29T22:16:47;26.8;;;18.9;;
56271;SDS011;42177;48.914;18.160;2022-12-29T22:21:47;25.7;;;19.3;;
56271;SDS011;42177;48.914;18.160;2022-12-29T22:26:47;25.7;;;19.3;;
56271;SDS011;42177;48.914;18.160;2022-12-29T22:31:47;25.3;;;17.5;;
56271;SDS011;42177;48.914;18.160;2022-12-29T22:36:47;25.3;;;17.5;;
56271;SDS011;42177;48.914;18.160;2022-12-29T22:41:47;27.5;;;18.8;;
56271;SDS011;42177;48.914;18.160;2022-12-29T22:46:47;27.5;;;18.8;;
56271;SDS011;42177;48.914;18.160;2022-12-29T22:51:47;26.6;;;18.9;;
56271;SDS011;42177;48.914;18.160;2022-12-29T22:56:47;26.6;;;18.9;;
56271;SDS011;42177;48.914;18.160;2022-12-29T23:01:47;25.2;;;18.1;;
56271;SDS011;42177;48.914;18.160;2022-12-29T23:06:47;25.2;;;18.1;;
56271;SDS011;42177;48.914;18.160;2022-12-29T23:11:47;26.4;;;18.1;;
56271;SDS011;42177;48.914;18.160;2022-12-29T23:16:47;26.4;;;18.1;;
56271;SDS011;42177;48.914;18.160;2022-12-29T23:21:47;27.2;;;19.6;;
56271;SDS011;42177;48.914;18.160;2022-12-29T23:26:47;27.2;;;19.6;;
56271;SDS011;42177;48.914;18.160;2022-12-29T23:31:47;31.4;;;21.4;;
56271;SDS011;42177;48.914;18.160;2022-12-29T23:36:47;31.4;;;21.4;;
56271;SDS011;42177;48.914;18.160;2022-12-29T23:41:47;30.5;;;21;;
56271;SDS011;42177;48.914;18.160;2022-12-29T23:46:47;30.5;;;21;;
56271;SDS011;42177;48.914;18.160;2022-12-29T23:51:47;30.7;;;20.8;;
56271;SDS011;42177;48.914;18.160;2022-12-29T23:56:47;30.7;;;20.8;;
